Flight Track Log - Related Links

Times and Time Zones

All times are in EDT time to prevent confusion due to time zone crossing. See the N26TF flight status page for this flight to view local times or setup timezone preferences in your user account.

Time Position Orientation Groundspeed Altitude Reporting Facility
EDT Latitude Longitude Course Direction KTS MPH feet Rate Location/Type
Wed 05:25:17 PM 46.7419 -92.1111 138° Southeast 174 200 7,500  Level Minneapolis Center
Wed 05:26:19 PM 46.7022 -92.0589 138° Southeast 166 191 9,700 1,721 Climbing Minneapolis Center
Wed 05:27:33 PM 46.6728 -92.0089 131° Southeast 163 188 11,400 1,226 Climbing Minneapolis Center
Wed 05:28:00 PM 46.6440 -91.6659 128° Southeast  Level Estimated
Wed 05:28:36 PM 46.6406 -91.9325 122° Southeast 180 207 12,500  Level Minneapolis Center
Wed 05:29:00 PM 46.5819 -91.6230 155° Southeast  Level FlightAware Approximate
Wed 05:29:37 PM 46.6136 -91.8836 129° Southeast 190 219 13,400  Level Minneapolis Center
Wed 05:30:40 PM 46.5767 -91.8139 128° Southeast 183 211 14,900 1,392 Climbing Minneapolis Center
Wed 05:31:42 PM 46.5439 -91.7489 126° Southeast 169 194 16,300 1,161 Climbing Minneapolis Center
Wed 05:32:44 PM 46.5186 -91.6969 125° Southeast 161 185 17,300 919 Climbing Minneapolis Center
Wed 05:33:46 PM 46.4900 -91.6453 129° Southeast 162 186 18,200 919 Climbing Minneapolis Center
Wed 05:34:48 PM 46.4608 -91.5875 126° Southeast 176 203 19,200 919 Climbing Minneapolis Center
Wed 05:35:50 PM 46.4236 -91.5239 130° Southeast 201 231 20,100 919 Climbing Minneapolis Center
Wed 05:36:52 PM 46.3772 -91.4403 129° Southeast 219 252 21,100 919 Climbing Minneapolis Center
Wed 05:37:54 PM 46.3397 -91.3650 126° Southeast 228 262 22,000 720 Climbing Minneapolis Center
Wed 05:38:57 PM 46.2992 -91.2867 127° Southeast 240 276 22,600 528 Climbing Minneapolis Center
Wed 05:39:59 PM 46.2547 -91.2075 129° Southeast 250 288 23,100 290 Climbing Minneapolis Center
Wed 05:41:01 PM 46.2064 -91.1217 129° Southeast 270 311 23,200 484 Climbing Minneapolis Center
Wed 05:42:03 PM 46.1531 -91.0214 127° Southeast 265 305 24,100 823 Climbing Minneapolis Center
Wed 05:43:05 PM 46.1078 -90.9392 128° Southeast 263 303 24,900 435 Climbing Minneapolis Center
Wed 05:44:07 PM 46.0647 -90.8572 127° Southeast 261 300 25,000 97 Climbing Minneapolis Center
Wed 05:45:09 PM 46.0186 -90.7703 127° Southeast 265 305 25,100  Climbing Minneapolis Center
Wed 05:46:11 PM 45.9706 -90.6761 126° Southeast 277 319 25,000 -48 Descending Minneapolis Center
Wed 05:47:13 PM 45.9203 -90.5847 128° Southeast 285 328 25,000  Level Minneapolis Center
Wed 05:48:15 PM 45.8592 -90.4756 129° Southeast 291 335 25,000  Level Minneapolis Center
Wed 05:49:17 PM 45.8094 -90.3833 128° Southeast 293 337 25,000  Level Minneapolis Center
Wed 05:50:20 PM 45.7589 -90.2928 129° Southeast 292 336 25,000  Level Minneapolis Center
Wed 05:51:22 PM 45.7083 -90.2014 128° Southeast 294 338 25,000  Level Minneapolis Center
Wed 05:52:24 PM 45.6583 -90.1108 128° Southeast 292 336 25,000  Level Minneapolis Center
Wed 05:53:38 PM 45.6083 -90.0231 129° Southeast 288 331 25,000  Level Minneapolis Center
Wed 05:54:40 PM 45.5383 -89.8975 128° Southeast 290 334 25,000  Level Minneapolis Center
Wed 05:55:42 PM 45.4975 -89.8250 129° Southeast 292 336 25,000  Level Minneapolis Center
Wed 05:56:45 PM 45.4367 -89.7183 129° Southeast 290 334 25,000 48 Level Minneapolis Center
Wed 05:57:47 PM 45.3869 -89.6281 128° Southeast 291 335 25,100 48 Climbing Minneapolis Center
Wed 05:58:49 PM 45.3367 -89.5389 129° Southeast 291 335 25,100 -47 Level Minneapolis Center
Wed 05:59:54 PM 45.2756 -89.4333 129° Southeast 289 333 25,000  Descending Minneapolis Center
Wed 06:00:56 PM 45.2256 -89.3453 129° Southeast 288 331 25,100  Climbing Minneapolis Center
Wed 06:01:58 PM 45.1750 -89.2583 129° Southeast 288 331 25,000 -48 Descending Minneapolis Center
Wed 06:03:00 PM 45.1253 -89.1711 129° Southeast 287 330 25,000  Level Minneapolis Center
Wed 06:04:02 PM 45.0656 -89.0656 129° Southeast 287 330 25,000 44 Level Minneapolis Center
Wed 06:05:16 PM 45.0203 -88.9883 130° Southeast 287 330 25,100  Climbing Minneapolis Center
Wed 06:06:19 PM 44.9528 -88.8731 130° Southeast 285 328 25,000 -48 Descending Minneapolis Center
Wed 06:07:21 PM 44.9022 -88.7856 129° Southeast 286 329 25,000 48 Level Minneapolis Center
Wed 06:08:23 PM 44.8514 -88.6994 130° Southeast 285 328 25,100  Climbing Minneapolis Center
Wed 06:09:25 PM 44.8006 -88.6108 129° Southeast 290 334 25,000  Descending Minneapolis Center
Wed 06:10:27 PM 44.7406 -88.5114 130° Southeast 286 329 25,100  Climbing Minneapolis Center
Wed 06:11:29 PM 44.6906 -88.4244 129° Southeast 285 328 25,000 -48 Descending Minneapolis Center
Wed 06:12:31 PM 44.6403 -88.3408 130° Southeast 281 323 25,000 48 Level Minneapolis Center
Wed 06:13:33 PM 44.5897 -88.2525 129° Southeast 286 329 25,100  Climbing Minneapolis Center
Wed 06:14:36 PM 44.5417 -88.1658 128° Southeast 283 326 25,000  Descending Minneapolis Center
Wed 06:15:38 PM 44.5058 -88.0475 113° Southeast 282 325 25,100 48 Climbing Minneapolis Center
Wed 06:16:40 PM 44.4725 -87.9464 115° Southeast 284 327 25,100 -48 Level Minneapolis Center
Wed 06:17:42 PM 44.4392 -87.8469 115° Southeast 283 326 25,000 -48 Descending Minneapolis Center
Wed 06:18:46 PM 44.4056 -87.7456 115° Southeast 284 327 25,000  Level Minneapolis Center
Wed 06:19:48 PM 44.3719 -87.6453 115° Southeast 284 327 25,000 48 Level Minneapolis Center
Wed 06:20:50 PM 44.3325 -87.5269 115° Southeast 286 329 25,100 48 Climbing Minneapolis Center
Wed 06:21:52 PM 44.2981 -87.4264 116° Southeast 285 328 25,100  Level Minneapolis Center
Wed 06:22:54 PM 44.2644 -87.3258 115° Southeast 285 328 25,100  Level Minneapolis Center
Wed 06:23:57 PM 44.2306 -87.2267 115° Southeast 283 326 25,100 -48 Level Minneapolis Center
Wed 06:24:59 PM 44.1947 -87.1239 116° Southeast 284 327 25,000  Descending Minneapolis Center
Wed 06:26:01 PM 44.1608 -87.0247 115° Southeast 284 327 25,100 48 Climbing Minneapolis Center
Wed 06:27:03 PM 44.1261 -86.9250 116° Southeast 286 329 25,100 -48 Level Minneapolis Center
Wed 06:28:05 PM 44.0922 -86.8256 115° Southeast 284 327 25,000 -48 Descending Minneapolis Center
Wed 06:29:07 PM 44.0503 -86.7089 117° Southeast 282 325 25,000  Level Minneapolis Center
Wed 06:30:09 PM 44.0178 -86.6103 115° Southeast 282 325 25,000  Level Minneapolis Center
Wed 06:31:11 PM 43.9833 -86.5128 116° Southeast 281 323 25,000  Level Minneapolis Center
Wed 06:32:13 PM 43.9492 -86.4158 116° Southeast 280 322 25,000 48 Level Minneapolis Center
Wed 06:33:15 PM 43.9144 -86.3178 116° Southeast 283 326 25,100  Climbing Minneapolis Center
Wed 06:34:17 PM 43.8817 -86.2208 115° Southeast 279 321 25,000 -48 Descending Minneapolis Center
Wed 06:35:19 PM 43.8403 -86.1064 117° Southeast 278 320 25,000  Level Minneapolis Center
Wed 06:36:34 PM 43.7997 -85.9906 116° Southeast 278 320 25,000 44 Level Minneapolis Center
Wed 06:37:36 PM 43.7656 -85.8950 116° Southeast 278 320 25,100  Climbing Minneapolis Center
Wed 06:38:38 PM 43.7306 -85.7997 117° Southeast 277 319 25,000  Descending Minneapolis Center
Wed 06:39:40 PM 43.6969 -85.7044 116° Southeast 277 319 25,100  Climbing Minneapolis Center
Wed 06:40:42 PM 43.6625 -85.6097 117° Southeast 276 318 25,000 -48 Descending Minneapolis Center
Wed 06:41:44 PM 43.6208 -85.4961 117° Southeast 276 318 25,000  Level Minneapolis Center
Wed 06:42:36 PM 43.5933 -85.4206 117° Southeast 276 318 25,000  Level Chicago Center
Wed 06:43:38 PM 43.5589 -85.3250 116° Southeast 277 319 25,000  Level Chicago Center
Wed 06:44:40 PM 43.5244 -85.2294 116° Southeast 278 320 25,000 48 Level Chicago Center
Wed 06:45:42 PM 43.4897 -85.1342 117° Southeast 278 320 25,100 48 Climbing Chicago Center
Wed 06:46:44 PM 43.4547 -85.0392 117° Southeast 278 320 25,100 -48 Level Chicago Center
Wed 06:47:46 PM 43.4125 -84.9256 117° Southeast 277 319 25,000 -61 Descending Chicago Center
Wed 06:48:22 PM 43.3917 -84.8700 117° Southeast 277 319 25,000 61 Level Minneapolis Center
Wed 06:49:24 PM 43.3569 -84.7764 117° Southeast 275 316 25,100  Climbing Minneapolis Center
Wed 06:50:25 PM 43.3283 -84.7003 117° Southeast 277 319 25,000 -48 Descending Minneapolis Center
Wed 06:51:28 PM 43.2867 -84.5878 117° Southeast 278 320 25,000 48 Level Minneapolis Center
Wed 06:52:30 PM 43.2575 -84.5125 118° Southeast 278 320 25,100  Climbing Minneapolis Center
Wed 06:53:32 PM 43.2078 -84.4081 123° Southeast 277 319 25,000  Descending Minneapolis Center
Wed 06:54:34 PM 43.1378 -84.3258 139° Southeast 275 316 25,100 50 Climbing Minneapolis Center
Wed 06:55:32 PM 43.0850 -84.2703 142° Southeast 268 308 25,100  Level Cleveland Center
Wed 06:56:03 PM 43.0581 -84.2300 132° Southeast 273 314 25,100 -65 Level Chicago Center
Wed 06:57:05 PM 43.0011 -84.1608 138° Southeast 275 316 25,000  Descending Chicago Center
Wed 06:58:32 PM 42.9142 -84.0647 141° Southeast 269 310 25,100  Climbing Cleveland Center
Wed 06:59:32 PM 42.8597 -83.9992 139° Southeast 269 310 25,000  Descending Cleveland Center
Wed 07:00:32 PM 42.8014 -83.9308 139° Southeast 269 310 25,100 50 Climbing Cleveland Center
Wed 07:01:32 PM 42.7447 -83.8658 140° Southeast 269 310 25,100  Level Cleveland Center
Wed 07:02:32 PM 42.6864 -83.7947 138° Southeast 269 310 25,100 -50 Level Cleveland Center
Wed 07:03:32 PM 42.6319 -83.7300 139° Southeast 269 310 25,000  Descending Cleveland Center
Wed 07:04:32 PM 42.5753 -83.6622 139° Southeast 269 310 25,100 50 Climbing Cleveland Center
Wed 07:05:32 PM 42.5167 -83.5947 140° Southeast 269 310 25,100 -50 Level Cleveland Center
Wed 07:06:32 PM 42.4619 -83.5300 139° Southeast 269 310 25,000  Descending Cleveland Center
Wed 07:07:32 PM 42.3950 -83.4567 141° Southeast 274 315 25,100  Climbing Cleveland Center
Wed 07:08:32 PM 42.3406 -83.3894 138° Southeast 274 315 25,000  Descending Cleveland Center
Wed 07:09:32 PM 42.2817 -83.3225 140° Southeast 269 310 25,100  Climbing Cleveland Center
Wed 07:10:32 PM 42.2269 -83.2583 139° Southeast 269 310 25,000  Descending Cleveland Center
Wed 07:11:32 PM 42.1700 -83.1914 139° Southeast 269 310 25,100  Climbing Cleveland Center
Wed 07:12:32 PM 42.1131 -83.1275 140° Southeast 269 310 25,000  Descending Cleveland Center
Wed 07:13:32 PM 42.0561 -83.0608 139° Southeast 269 310 25,100  Climbing Cleveland Center
Wed 07:14:32 PM 41.9972 -82.9944 140° Southeast 269 310 25,000 -50 Descending Cleveland Center
Wed 07:15:32 PM 41.9400 -82.9308 140° Southeast 269 310 25,000  Level Cleveland Center
Wed 07:16:32 PM 41.8850 -82.8647 138° Southeast 269 310 25,000 50 Level Cleveland Center
Wed 07:17:32 PM 41.8281 -82.8014 140° Southeast 269 310 25,100 50 Climbing Cleveland Center
Wed 07:18:32 PM 41.7708 -82.7381 140° Southeast 269 310 25,100  Level Cleveland Center
Wed 07:19:32 PM 41.7136 -82.6722 139° Southeast 269 310 25,100  Level Cleveland Center
Wed 07:20:32 PM 41.6586 -82.6064 138° Southeast 269 310 25,100  Level Cleveland Center
Wed 07:21:32 PM 41.6097 -82.5328 132° Southeast 269 310 25,100 -50 Level Cleveland Center
Wed 07:22:32 PM 41.5611 -82.4592 131° Southeast 264 304 25,000  Descending Cleveland Center
Wed 07:23:32 PM 41.5100 -82.3856 133° Southeast 264 304 25,100 50 Climbing Cleveland Center
Wed 07:24:32 PM 41.4611 -82.3122 132° Southeast 269 310 25,100  Level Cleveland Center
Wed 07:25:32 PM 41.4122 -82.2417 133° Southeast 264 304 25,100 -50 Level Cleveland Center
Wed 07:26:32 PM 41.3633 -82.1683 132° Southeast 264 304 25,000 -50 Descending Cleveland Center
Wed 07:27:32 PM 41.3225 -82.1011 129° Southeast 264 304 25,000  Level Cleveland Center
Wed 07:28:32 PM 41.2711 -82.0308 134° Southeast 264 304 25,000  Level Cleveland Center
Wed 07:29:32 PM 41.2219 -81.9606 133° Southeast 264 304 25,000  Level Cleveland Center
Wed 07:30:32 PM 41.1728 -81.8850 131° Southeast 264 304 25,000 50 Level Cleveland Center
Wed 07:31:32 PM 41.1133 -81.8067 135° Southeast 269 310 25,100  Climbing Cleveland Center
Wed 07:32:32 PM 41.0642 -81.7342 132° Southeast 269 310 25,000 -50 Descending Cleveland Center
Wed 07:33:32 PM 41.0125 -81.6617 133° Southeast 269 310 25,000 50 Level Cleveland Center
Wed 07:34:32 PM 40.9694 -81.5978 132° Southeast 269 310 25,100  Climbing Cleveland Center
Wed 07:35:32 PM 40.9181 -81.5256 133° Southeast 269 310 25,000 -50 Descending Cleveland Center
Wed 07:36:32 PM 40.8686 -81.4536 132° Southeast 269 310 25,000 50 Level Cleveland Center
Wed 07:37:32 PM 40.8189 -81.3814 132° Southeast 269 310 25,100  Climbing Cleveland Center
Wed 07:38:32 PM 40.7717 -81.3042 129° Southeast 269 310 25,000 -50 Descending Cleveland Center
Wed 07:39:32 PM 40.7344 -81.2217 121° Southeast 269 310 25,000  Level Cleveland Center
Wed 07:40:32 PM 40.6933 -81.1417 124° Southeast 263 303 25,000  Level Cleveland Center
Wed 07:41:32 PM 40.6539 -81.0567 121° Southeast 263 303 25,000  Level Cleveland Center
Wed 07:42:32 PM 40.6169 -80.9742 121° Southeast 263 303 25,000  Level Cleveland Center
Wed 07:43:32 PM 40.5753 -80.8919 124° Southeast 258 297 25,000  Level Cleveland Center
Wed 07:44:32 PM 40.5358 -80.8125 123° Southeast 258 297 25,000  Level Cleveland Center
Wed 07:45:32 PM 40.4964 -80.7306 122° Southeast 258 297 25,000  Level Cleveland Center
Wed 07:46:32 PM 40.4569 -80.6514 123° Southeast 258 297 25,000  Level Cleveland Center
Wed 07:47:32 PM 40.4175 -80.5694 122° Southeast 258 297 25,000  Level Cleveland Center
Wed 07:48:32 PM 40.3756 -80.4906 125° Southeast 258 297 25,000  Level Cleveland Center
Wed 07:49:32 PM 40.3358 -80.4061 122° Southeast 258 297 25,000 50 Level Cleveland Center
Wed 07:50:32 PM 40.2900 -80.3244 126° Southeast 258 297 25,100  Climbing Cleveland Center
Wed 07:51:32 PM 40.2481 -80.2431 124° Southeast 268 308 25,000 -50 Descending Cleveland Center
Wed 07:52:32 PM 40.2081 -80.1644 124° Southeast 268 308 25,000  Level Cleveland Center
Wed 07:53:32 PM 40.1683 -80.0833 123° Southeast 268 308 25,000  Level Cleveland Center
Wed 07:54:32 PM 40.1261 -80.0047 125° Southeast 268 308 25,000  Level Cleveland Center
Wed 07:55:32 PM 40.0903 -79.9236 120° Southeast 263 303 25,000  Level Cleveland Center
Wed 07:56:32 PM 40.0503 -79.8453 124° Southeast 258 297 25,000  Level Cleveland Center
Wed 07:57:32 PM 40.0100 -79.7644 123° Southeast 258 297 25,000  Level Cleveland Center
Wed 07:58:32 PM 39.9697 -79.6864 124° Southeast 258 297 25,000 -350 Level Cleveland Center
Wed 07:59:32 PM 39.9253 -79.6031 125° Southeast 263 303 24,300 -550 Descending Cleveland Center
Wed 08:00:32 PM 39.8850 -79.5225 123° Southeast 263 303 23,900 -350 Descending Cleveland Center
Wed 08:01:32 PM 39.8447 -79.4447 124° Southeast 263 303 23,600 -481 Descending Cleveland Center
Wed 08:03:14 PM 39.7831 -79.3206 123° Southeast 269 310 22,600 -593 Descending Washington Center
Wed 08:04:14 PM 39.7417 -79.2456 126° Southeast 263 303 22,000 -645 Descending Washington Center
Wed 08:05:15 PM 39.7022 -79.1678 123° Southeast 263 303 21,300 -787 Descending Washington Center
Wed 08:06:16 PM 39.6650 -79.0906 122° Southeast 257 296 20,400 -864 Descending Washington Center
Wed 08:07:13 PM 39.6444 -79.0061 108° East 252 290 19,600 -872 Descending Washington Center
Wed 08:08:13 PM 39.6203 -78.9053 107° East 252 290 18,700 -942 Descending Washington Center
Wed 08:09:14 PM 39.6017 -78.8208 106° East 252 290 17,700 -836 Descending Washington Center
Wed 08:10:15 PM 39.5850 -78.7419 105° East 242 278 17,000 -857 Descending Washington Center
Wed 08:11:13 PM 39.5683 -78.6631 105° East 231 266 16,000 -1,160 Descending Washington Center
Wed 08:12:14 PM 39.5475 -78.5817 108° East 231 266 14,700 -1,230 Descending Washington Center
Wed 08:13:15 PM 39.5286 -78.4972 106° East 231 266 13,500 -1,190 Descending Washington Center
Wed 08:14:15 PM 39.5139 -78.4214 104° East 231 266 12,300 -1,271 Descending Washington Center
Wed 08:15:13 PM 39.4967 -78.3481 107° East 221 254 11,000 -1,261 Descending Washington Center
Wed 08:16:14 PM 39.4797 -78.2750 107° East 210 242 9,800 -984 Descending Washington Center
Wed 08:17:15 PM 39.4644 -78.2072 106° East 204 235 9,000 -353 Descending Washington Center
Wed 08:18:13 PM 39.4514 -78.1394 104° East 204 235 9,100 50 Climbing Washington Center
Wed 08:19:14 PM 39.4361 -78.0717 106° East 204 235 9,100 -148 Level Washington Center
Wed 08:20:15 PM 39.4167 -77.9958 108° East 209 241 8,800 -403 Descending Washington Center
Wed 08:21:13 PM 39.4033 -77.9311 105° East 202 232 8,300 -458 Descending Washington Center
Wed 08:22:13 PM 39.3881 -77.8633 106° East 202 232 7,900 -496 Descending Washington Center
Wed 08:23:14 PM 39.3914 -77.7936 86° East 192 221 7,300 -545 Descending Washington Center
Wed 08:25:31 PM 39.4167 -77.6167 79° East 204 235 6,100 -365 Descending Potomac TRACON
Wed 08:26:31 PM 39.4167 -77.5500 90° East 191 220 6,100  Level Potomac TRACON
Wed 08:27:32 PM 39.4333 -77.4833 72° East 192 221 6,100  Level Potomac TRACON
Wed 08:28:31 PM 39.4333 -77.4167 90° East 186 214 6,100  Level Potomac TRACON
Wed 08:29:31 PM 39.4500 -77.3500 72° East 186 214 6,100 -50 Level Potomac TRACON
Wed 08:30:31 PM 39.4500 -77.2833 90° East 188 216 6,000 -48 Descending Potomac TRACON
Wed 08:31:37 PM 39.4667 -77.2167 72° East 185 213 6,000 48 Level Potomac TRACON
Wed 08:32:37 PM 39.4500 -77.1500 108° East 186 214 6,100  Climbing Potomac TRACON
Wed 08:33:37 PM 39.4500 -77.0833 90° East 191 220 6,000 -298 Descending Potomac TRACON
Wed 08:34:38 PM 39.4500 -77.0167 90° East 201 231 5,500 -446 Descending Potomac TRACON
Wed 08:35:38 PM 39.4500 -76.9500 90° East 189 217 5,100 -450 Descending Potomac TRACON
Wed 08:36:38 PM 39.4500 -76.8833 90° East 191 220 4,600 -450 Descending Potomac TRACON
Wed 08:37:38 PM 39.4667 -76.8167 72° East 187 215 4,200 -474 Descending Potomac TRACON
Wed 08:38:32 PM 39.4500 -76.7500 108° East 191 220 3,700 -450 Descending Potomac TRACON
Wed 08:39:38 PM 39.4167 -76.6833 123° Southeast 185 213 3,300 -333 Descending Potomac TRACON
Wed 08:40:38 PM 39.4000 -76.6333 113° Southeast 184 212 3,000 -150 Descending Potomac TRACON
Wed 08:41:38 PM 39.3667 -76.5833 131° Southeast 179 206 3,000  Level Potomac TRACON
Wed 08:42:38 PM 39.3333 -76.5333 131° Southeast 184 212 3,000 -150 Level Potomac TRACON
Wed 08:43:38 PM 39.2833 -76.5167 166° South 192 221 2,700 -381 Descending Potomac TRACON
Wed 08:44:44 PM 39.2167 -76.5000 169° South 190 219 2,200 -333 Descending Potomac TRACON
Wed 08:45:44 PM 39.1667 -76.5167 194° South 182 209 2,000 -100 Descending Potomac TRACON
Wed 08:46:44 PM 39.1333 -76.5667 229° Southwest 180 207 2,000 -400 Level Potomac TRACON
Wed 08:47:44 PM 39.1333 -76.6167 270° West 151 174 1,200 -750 Descending Potomac TRACON
Wed 08:48:44 PM 39.1667 -76.6333 339° North 99 114 500 -700 Descending Potomac TRACON

Login

Don't have an account? Register now (free) for customized features, flight alerts, and more!